createdAt,value
2018-05-15T00:02:00.728Z,56.01
2018-05-15T00:04:31.809Z,56.10
2018-05-15T00:07:02.727Z,56.37
2018-05-15T00:09:33.715Z,56.43
2018-05-15T00:12:04.795Z,56.85
2018-05-15T00:14:35.699Z,56.88
2018-05-15T00:17:06.684Z,56.91
2018-05-15T00:19:37.648Z,57.04
2018-05-15T00:22:08.739Z,57.27
2018-05-15T00:24:39.771Z,57.41
2018-05-15T00:27:10.802Z,57.43
2018-05-15T00:29:41.673Z,57.51
2018-05-15T00:32:12.206Z,57.62
2018-05-15T00:34:42.936Z,57.74
2018-05-15T00:37:14.035Z,58.02
2018-05-15T00:39:44.745Z,58.04
2018-05-15T00:42:15.707Z,58.02
2018-05-15T00:44:46.711Z,58.02
2018-05-15T00:47:17.411Z,58.17
2018-05-15T00:49:48.982Z,58.45
2018-05-15T00:52:20.024Z,58.51
2018-05-15T00:54:50.776Z,58.49
2018-05-15T00:57:21.828Z,58.50
2018-05-15T00:59:52.229Z,58.63
2018-05-15T01:02:23.056Z,58.66
2018-05-15T01:04:54.106Z,58.60
2018-05-15T01:07:24.898Z,58.66
2018-05-15T01:09:55.698Z,58.96
2018-05-15T01:12:26.717Z,59.06
2018-05-15T01:14:57.693Z,59.11
2018-05-15T01:17:28.707Z,59.26
2018-05-15T01:19:59.693Z,59.31
2018-05-15T01:22:30.488Z,59.42
2018-05-15T01:25:00.978Z,59.53
2018-05-15T01:27:32.021Z,59.68
2018-05-15T01:30:02.778Z,60.06
2018-05-15T01:32:33.814Z,60.04
2018-05-15T01:35:04.447Z,60.07
2018-05-15T01:37:36.029Z,61.22
2018-05-15T01:40:06.759Z,61.24
2018-05-15T01:42:37.714Z,61.05
2018-05-15T01:45:08.311Z,60.64
2018-05-15T01:47:39.201Z,60.58
2018-05-15T01:50:09.975Z,60.59
2018-05-15T01:52:40.820Z,60.66
2018-05-15T01:55:11.635Z,60.79
2018-05-15T01:57:42.977Z,60.91
2018-05-15T02:00:13.729Z,60.84
2018-05-15T02:02:44.718Z,60.97
2018-05-15T02:05:15.701Z,61.22
2018-05-15T02:07:46.678Z,61.15
2018-05-15T02:10:17.719Z,61.16
2018-05-15T02:12:48.697Z,61.33
2018-05-15T02:15:19.686Z,61.53
2018-05-15T02:17:50.668Z,61.55
2018-05-15T02:20:21.720Z,61.69
2018-05-15T02:22:52.834Z,62.09
2018-05-15T02:25:23.653Z,62.42
2018-05-15T02:27:54.733Z,62.84
2018-05-15T02:30:24.629Z,63.26
2018-05-15T02:32:55.747Z,64.58
2018-05-15T02:35:26.743Z,64.10
2018-05-15T02:37:57.772Z,63.76
2018-05-15T02:40:28.730Z,63.34
2018-05-15T02:42:59.719Z,63.27
2018-05-15T02:45:30.274Z,63.29
2018-05-15T02:48:01.081Z,63.35
2018-05-15T02:50:31.802Z,63.44
2018-05-15T02:53:02.825Z,63.81
2018-05-15T02:55:33.626Z,63.72
2018-05-15T02:58:04.511Z,63.78
2018-05-15T03:00:35.192Z,63.67
2018-05-15T03:03:06.002Z,63.79
2018-05-15T03:05:36.727Z,63.93
2018-05-15T03:08:07.699Z,63.91
2018-05-15T03:10:38.648Z,63.81
2018-05-15T03:13:09.274Z,63.92
2018-05-15T03:15:39.998Z,64.02
2018-05-15T03:18:10.818Z,64.20
2018-05-15T03:20:41.639Z,64.13
2018-05-15T03:23:12.845Z,63.85
2018-05-15T03:25:43.807Z,64.54
2018-05-15T03:28:14.832Z,64.49
2018-05-15T03:30:45.716Z,64.47
2018-05-15T03:33:16.686Z,64.46
2018-05-15T03:35:47.627Z,64.43
2018-05-15T03:38:18.695Z,64.40
2018-05-15T03:40:49.697Z,64.65
2018-05-15T03:43:20.843Z,64.51
2018-05-15T03:45:51.733Z,64.42
2018-05-15T03:48:22.763Z,64.49
2018-05-15T03:50:53.702Z,64.42
2018-05-15T03:53:24.729Z,64.48
2018-05-15T03:55:55.712Z,64.57
2018-05-15T03:58:26.751Z,64.50
2018-05-15T04:01:08.796Z,64.83
2018-05-15T04:03:48.832Z,65.39
2018-05-15T04:06:28.965Z,65.60
2018-05-15T04:08:59.775Z,65.58
2018-05-15T04:11:28.751Z,65.04
2018-05-15T04:13:58.055Z,65.60
2018-05-15T04:16:27.013Z,65.15
2018-05-15T04:18:56.212Z,66.99
2018-05-15T04:21:25.230Z,66.10
2018-05-15T04:23:54.656Z,66.18
2018-05-15T04:26:23.959Z,66.50
2018-05-15T04:28:53.223Z,66.99
2018-05-15T04:31:22.275Z,67.61
2018-05-15T04:33:51.290Z,67.16
2018-05-15T04:36:20.251Z,66.85
2018-05-15T04:38:49.264Z,66.54
2018-05-15T04:41:18.218Z,65.98
2018-05-15T04:43:47.296Z,67.39
2018-05-15T04:46:16.447Z,66.27
2018-05-15T04:48:48.148Z,66.33
2018-05-15T04:51:18.249Z,69.08
2018-05-15T04:53:48.954Z,68.12
2018-05-15T04:56:19.905Z,66.81
2018-05-15T04:58:50.797Z,67.54
2018-05-15T05:01:21.779Z,66.31
2018-05-15T05:03:52.714Z,66.29
2018-05-15T05:06:23.866Z,67.30
2018-05-15T05:08:54.572Z,66.58
2018-05-15T05:11:25.674Z,67.39
2018-05-15T05:13:56.699Z,66.70
2018-05-15T05:16:27.723Z,66.48
2018-05-15T05:18:58.660Z,66.90
2018-05-15T05:21:29.831Z,66.92
2018-05-15T05:24:00.632Z,67.47
2018-05-15T05:26:31.774Z,67.55
2018-05-15T05:29:02.451Z,67.10
2018-05-15T05:31:34.450Z,66.84
2018-05-15T05:34:04.954Z,67.44
2018-05-15T05:36:35.712Z,66.63
2018-05-15T05:39:07.301Z,66.27
2018-05-15T05:41:37.275Z,66.23
2018-05-15T05:44:07.918Z,68.33
2018-05-15T05:46:38.746Z,67.11
2018-05-15T05:49:09.701Z,65.58
2018-05-15T05:51:40.672Z,65.59
2018-05-15T05:54:11.658Z,65.55
2018-05-15T05:56:42.834Z,66.03
2018-05-15T05:59:13.830Z,66.03
2018-05-15T06:01:44.739Z,65.14
2018-05-15T06:04:15.730Z,65.35
2018-05-15T06:06:46.741Z,64.56
2018-05-15T06:09:17.710Z,64.18
2018-05-15T06:11:48.690Z,66.10
2018-05-15T06:14:19.730Z,64.26
2018-05-15T06:16:50.646Z,65.07
2018-05-15T06:19:21.547Z,63.96
2018-05-15T06:21:52.898Z,63.20
2018-05-15T06:24:23.739Z,63.13
2018-05-15T06:26:54.914Z,62.58
2018-05-15T06:29:25.657Z,61.88
2018-05-15T06:31:57.506Z,61.61
2018-05-15T06:34:28.157Z,61.50
2018-05-15T06:37:02.336Z,61.11
2018-05-15T06:39:31.291Z,60.82
2018-05-15T06:42:01.400Z,60.71
2018-05-15T06:44:32.082Z,61.26
2018-05-15T06:47:02.875Z,61.53
2018-05-15T06:49:33.714Z,61.47
2018-05-15T06:52:04.486Z,60.67
2018-05-15T06:54:35.177Z,61.42
2018-05-15T06:57:05.971Z,60.17
2018-05-15T06:59:36.759Z,59.59
2018-05-15T07:02:07.856Z,59.49
2018-05-15T07:04:37.979Z,59.55
2018-05-15T07:07:08.795Z,58.79
2018-05-15T07:09:39.686Z,58.30
2018-05-15T07:12:10.794Z,58.55
2018-05-15T07:14:41.722Z,59.12
2018-05-15T07:17:12.571Z,57.35
2018-05-15T07:19:43.668Z,56.60
2018-05-15T07:22:14.560Z,56.33
2018-05-15T07:24:45.208Z,56.00
2018-05-15T07:27:15.895Z,55.04
2018-05-15T07:29:46.717Z,55.36
2018-05-15T07:32:17.653Z,55.24
2018-05-15T07:34:48.661Z,55.39
2018-05-15T07:37:19.635Z,54.55
2018-05-15T07:39:50.642Z,53.58
2018-05-15T07:42:21.639Z,53.67
2018-05-15T07:44:52.863Z,53.54
2018-05-15T07:47:23.265Z,52.07
2018-05-15T07:49:54.090Z,52.63
2018-05-15T07:52:24.731Z,52.33
2018-05-15T07:54:55.659Z,52.59
2018-05-15T07:57:26.645Z,51.80
2018-05-15T07:59:56.985Z,51.49
2018-05-15T08:02:27.659Z,51.09
2018-05-15T08:04:58.630Z,50.03
2018-05-15T08:07:29.594Z,50.16
2018-05-15T08:10:00.741Z,51.42
2018-05-15T08:12:31.658Z,51.38
2018-05-15T08:15:02.662Z,50.70
2018-05-15T08:17:34.498Z,49.42
2018-05-15T08:20:04.306Z,48.49
2018-05-15T08:22:35.220Z,49.21
2018-05-15T08:25:06.212Z,49.01
2018-05-15T08:27:36.159Z,49.53
2018-05-15T08:30:06.935Z,49.73
2018-05-15T08:32:37.643Z,50.75
2018-05-15T08:35:08.690Z,50.56
2018-05-15T08:37:39.777Z,50.18
2018-05-15T08:40:10.855Z,49.19
2018-05-15T08:42:41.678Z,49.74
2018-05-15T08:45:12.724Z,48.49
2018-05-15T08:47:43.684Z,47.70
2018-05-15T08:50:14.894Z,47.42
2018-05-15T08:52:45.660Z,48.86
2018-05-15T08:55:16.790Z,47.34
2018-05-15T08:57:47.670Z,46.35
2018-05-15T09:00:18.758Z,45.71
2018-05-15T09:02:49.591Z,45.41
2018-05-15T09:05:20.762Z,45.60
2018-05-15T09:07:51.578Z,45.17
2018-05-15T09:10:22.696Z,45.30
2018-05-15T09:12:53.232Z,44.59
2018-05-15T09:15:23.963Z,44.49
2018-05-15T09:17:54.700Z,44.49
2018-05-15T09:20:25.610Z,43.42
2018-05-15T09:22:56.666Z,44.31
2018-05-15T09:25:27.729Z,44.23
2018-05-15T09:27:58.747Z,44.30
2018-05-15T09:30:29.289Z,44.04
2018-05-15T09:33:00.019Z,43.48
2018-05-15T09:35:30.746Z,42.41
2018-05-15T09:38:01.673Z,41.37
2018-05-15T09:40:32.644Z,41.64
2018-05-15T09:43:03.649Z,41.42
2018-05-15T09:45:34.646Z,42.34
2018-05-15T09:48:05.338Z,41.76
2018-05-15T09:50:36.946Z,42.56
2018-05-15T09:53:07.765Z,42.50
2018-05-15T09:55:38.766Z,41.26
2018-05-15T09:58:09.652Z,40.28
2018-05-15T10:00:40.699Z,40.85
2018-05-15T10:03:11.587Z,40.71
2018-05-15T10:05:42.710Z,41.21
2018-05-15T10:08:13.600Z,40.72
2018-05-15T10:10:45.027Z,39.87
2018-05-15T10:13:15.739Z,38.87
2018-05-15T10:15:46.715Z,38.45
2018-05-15T10:18:17.647Z,37.86
2018-05-15T10:20:48.614Z,36.87
2018-05-15T10:23:19.618Z,37.10
2018-05-15T10:25:50.664Z,35.93
2018-05-15T10:28:21.183Z,36.36
2018-05-15T10:30:51.917Z,37.36
2018-05-15T10:33:22.654Z,37.11
2018-05-15T10:35:53.691Z,36.10
2018-05-15T10:38:24.573Z,37.37
2018-05-15T10:40:55.602Z,39.13
2018-05-15T10:43:26.622Z,37.25
2018-05-15T10:45:57.677Z,36.79
2018-05-15T10:48:28.634Z,37.12
2018-05-15T10:50:59.742Z,38.58
2018-05-15T10:53:30.202Z,39.27
2018-05-15T10:56:00.934Z,38.96
2018-05-15T10:58:31.884Z,39.74
2018-05-15T11:01:02.717Z,39.96
2018-05-15T11:03:33.294Z,38.59
2018-05-15T11:06:04.353Z,39.34
2018-05-15T11:08:35.158Z,38.74
2018-05-15T11:11:05.630Z,39.24
2018-05-15T11:13:36.639Z,38.75
2018-05-15T11:16:07.658Z,39.31
2018-05-15T11:18:45.871Z,39.49
2018-05-15T11:21:25.871Z,39.21
2018-05-15T11:24:06.151Z,39.16
2018-05-15T11:26:35.367Z,38.71
2018-05-15T11:29:04.329Z,37.90
2018-05-15T11:31:33.283Z,37.06
2018-05-15T11:34:02.353Z,37.96
2018-05-15T11:36:31.663Z,37.00
2018-05-15T11:39:00.898Z,37.64
2018-05-15T11:41:29.870Z,38.88
2018-05-15T11:43:59.165Z,38.56
2018-05-15T11:46:28.126Z,39.06
2018-05-15T11:48:57.919Z,38.74
2018-05-15T11:51:27.863Z,37.68
2018-05-15T11:53:56.318Z,37.79
2018-05-15T11:56:25.448Z,36.70
2018-05-15T11:58:55.539Z,37.59
2018-05-15T12:01:25.331Z,38.19
2018-05-15T12:03:56.271Z,38.22
2018-05-15T12:06:27.190Z,38.72
2018-05-15T12:08:57.964Z,38.38
2018-05-15T12:11:28.686Z,40.11
2018-05-15T12:13:59.724Z,39.79
2018-05-15T12:16:30.617Z,39.36
2018-05-15T12:19:01.708Z,38.31
2018-05-15T12:21:32.582Z,39.95
2018-05-15T12:24:03.720Z,40.82
2018-05-15T12:26:34.605Z,40.00
2018-05-15T12:29:05.780Z,40.12
2018-05-15T12:31:36.478Z,40.41
2018-05-15T12:34:07.198Z,40.67
2018-05-15T12:36:37.870Z,39.67
2018-05-15T12:39:08.379Z,39.71
2018-05-15T12:41:39.151Z,39.64
2018-05-15T12:44:10.027Z,40.27
2018-05-15T12:46:40.672Z,40.36
2018-05-15T12:49:11.622Z,39.66
2018-05-15T12:51:43.074Z,39.80
2018-05-15T12:54:14.043Z,40.16
2018-05-15T12:56:44.829Z,40.88
2018-05-15T12:59:15.641Z,40.27
2018-05-15T13:01:46.713Z,40.72
2018-05-15T13:04:18.079Z,40.46
2018-05-15T13:06:48.795Z,41.52
2018-05-15T13:09:19.633Z,41.66
2018-05-15T13:11:50.654Z,41.94
2018-05-15T13:14:21.723Z,42.09
2018-05-15T13:16:52.594Z,41.39
2018-05-15T13:19:23.706Z,40.40
2018-05-15T13:21:54.574Z,39.40
2018-05-15T13:24:25.724Z,39.61
2018-05-15T13:26:55.954Z,39.18
2018-05-15T13:29:26.734Z,39.18
2018-05-15T13:31:58.398Z,38.94
2018-05-15T13:34:29.188Z,39.07
2018-05-15T13:36:59.858Z,39.47
2018-05-15T13:39:32.690Z,39.31
2018-05-15T13:42:01.619Z,38.64
2018-05-15T13:44:32.254Z,37.41
2018-05-15T13:47:02.926Z,36.95
2018-05-15T13:49:33.715Z,36.96
2018-05-15T13:52:04.656Z,36.93
2018-05-15T13:54:35.709Z,36.19
2018-05-15T13:57:06.634Z,36.12
2018-05-15T13:59:37.693Z,35.54
2018-05-15T14:02:08.609Z,34.40
2018-05-15T14:04:39.730Z,34.81
2018-05-15T14:07:10.599Z,34.86
2018-05-15T14:09:41.697Z,36.06
2018-05-15T14:12:12.578Z,36.16
2018-05-15T14:14:43.664Z,36.13
2018-05-15T14:17:14.163Z,36.23
2018-05-15T14:19:44.878Z,36.60
2018-05-15T14:22:15.732Z,37.51
2018-05-15T14:24:46.691Z,38.52
2018-05-15T14:27:18.537Z,36.95
2018-05-15T14:29:49.206Z,36.97
2018-05-15T14:32:20.031Z,35.86
2018-05-15T14:34:50.849Z,36.34
2018-05-15T14:37:21.599Z,35.96
2018-05-15T14:39:52.612Z,35.41
2018-05-15T14:42:36.224Z,36.09
2018-05-15T14:45:05.288Z,36.25
2018-05-15T14:47:34.249Z,37.25
2018-05-15T14:50:03.185Z,37.42
2018-05-15T14:52:32.154Z,37.33
2018-05-15T14:55:01.173Z,38.08
2018-05-15T14:57:30.215Z,38.98
2018-05-15T15:00:00.995Z,38.83
2018-05-15T15:02:31.196Z,39.28
2018-05-15T15:05:01.874Z,39.65
2018-05-15T15:07:32.698Z,40.34
2018-05-15T15:10:03.262Z,40.35
2018-05-15T15:12:34.029Z,40.63
2018-05-15T15:15:05.026Z,42.79
2018-05-15T15:17:35.010Z,41.65
2018-05-15T15:20:05.713Z,41.10
2018-05-15T15:22:36.317Z,40.25
2018-05-15T15:25:07.258Z,40.35
2018-05-15T15:27:38.079Z,40.64
2018-05-15T15:30:08.767Z,41.72
2018-05-15T15:32:40.082Z,42.98
2018-05-15T15:35:10.798Z,42.51
2018-05-15T15:37:41.357Z,42.15
2018-05-15T15:40:11.970Z,43.02
2018-05-15T15:42:42.775Z,42.18
2018-05-15T15:45:13.673Z,42.18
2018-05-15T15:47:44.685Z,42.34
2018-05-15T15:50:15.766Z,42.57
2018-05-15T15:52:46.763Z,42.98
2018-05-15T15:55:17.662Z,43.92
2018-05-15T15:57:48.774Z,44.43
2018-05-15T16:00:19.668Z,44.36
2018-05-15T16:02:50.725Z,44.55
2018-05-15T16:05:21.778Z,44.32
2018-05-15T16:07:52.642Z,44.35
2018-05-15T16:10:23.642Z,43.95
2018-05-15T16:12:54.390Z,43.33
2018-05-15T16:15:25.086Z,43.84
2018-05-15T16:17:55.142Z,44.66
2018-05-15T16:20:25.871Z,44.49
2018-05-15T16:22:56.644Z,46.27
2018-05-15T16:25:27.649Z,46.61
2018-05-15T16:27:58.734Z,46.90
2018-05-15T16:30:29.631Z,48.58
2018-05-15T16:33:00.633Z,50.40
2018-05-15T16:35:31.627Z,51.12
2018-05-15T16:38:02.335Z,52.97
2018-05-15T16:40:33.077Z,53.87
2018-05-15T16:43:03.864Z,55.88
2018-05-15T16:45:33.970Z,57.92
2018-05-15T16:48:04.757Z,59.32
2018-05-15T16:50:35.710Z,60.73
2018-05-15T16:53:06.772Z,60.77
2018-05-15T16:55:37.626Z,61.45
2018-05-15T16:58:08.750Z,63.14
2018-05-15T17:00:39.610Z,64.16
2018-05-15T17:03:10.777Z,64.97
2018-05-15T17:05:41.701Z,65.99
2018-05-15T17:08:12.747Z,66.70
2018-05-15T17:10:43.688Z,67.50
2018-05-15T17:13:14.964Z,67.56
2018-05-15T17:15:45.654Z,68.76
2018-05-15T17:18:16.329Z,68.92
2018-05-15T17:20:48.314Z,69.89
2018-05-15T17:23:18.393Z,69.91
2018-05-15T17:25:49.147Z,69.35
2018-05-15T17:28:19.975Z,69.88
2018-05-15T17:30:50.687Z,69.82
2018-05-15T17:33:21.769Z,69.89
2018-05-15T17:35:52.295Z,70.17
2018-05-15T17:38:23.035Z,69.56
2018-05-15T17:40:53.800Z,69.95
2018-05-15T17:43:24.884Z,69.73
2018-05-15T17:59:08.951Z,68.12
2018-05-15T18:01:38.907Z,68.93
2018-05-15T18:04:07.992Z,68.07
2018-05-15T18:06:37.231Z,68.19
2018-05-15T18:09:05.664Z,67.79
2018-05-15T18:11:35.193Z,68.04
2018-05-15T18:14:04.304Z,67.95
2018-05-15T18:16:33.360Z,67.98
2018-05-15T18:19:02.693Z,67.52
2018-05-15T18:21:32.583Z,67.52
2018-05-15T18:24:04.552Z,67.75
2018-05-15T18:26:35.052Z,67.43
2018-05-15T18:29:04.296Z,67.32
2018-05-15T18:31:35.607Z,67.56
2018-05-15T18:34:04.802Z,67.44
2018-05-15T18:36:34.028Z,67.46
2018-05-15T18:39:04.339Z,67.73
2018-05-15T18:41:33.825Z,67.91
2018-05-15T18:44:02.942Z,67.75
2018-05-15T18:46:32.684Z,67.96
2018-05-15T18:49:02.433Z,67.99
2018-05-15T18:51:33.496Z,67.98
2018-05-15T18:54:04.441Z,68.07
2018-05-15T18:56:33.920Z,68.00
2018-05-15T18:59:03.284Z,68.11
2018-05-15T19:01:32.315Z,68.27
2018-05-15T19:04:02.290Z,68.29
2018-05-15T19:06:31.398Z,68.42
2018-05-15T19:09:00.547Z,68.56
2018-05-15T19:11:29.839Z,68.71
2018-05-15T19:13:58.951Z,68.68
2018-05-15T19:16:28.364Z,69.16
2018-05-15T19:18:57.953Z,68.76
2018-05-15T19:21:27.107Z,68.94
2018-05-15T19:23:57.097Z,69.11
2018-05-15T19:26:26.671Z,68.93
2018-05-15T19:28:55.822Z,69.28
2018-05-15T19:31:30.578Z,69.25
2018-05-15T19:34:00.296Z,69.04
2018-05-15T19:36:32.273Z,69.33
2018-05-15T19:39:06.829Z,69.19
2018-05-15T19:41:36.640Z,69.24
2018-05-15T19:44:07.347Z,69.24
2018-05-15T19:46:36.509Z,69.26
2018-05-15T19:49:05.955Z,69.34
2018-05-15T19:51:35.398Z,70.04
2018-05-15T19:54:09.922Z,69.94
2018-05-15T19:56:39.093Z,70.16
2018-05-15T19:59:08.496Z,70.18
2018-05-15T20:01:37.478Z,70.17
2018-05-15T20:04:06.583Z,70.13
2018-05-15T20:06:36.068Z,70.12
2018-05-15T20:09:06.266Z,69.94
2018-05-15T20:11:35.475Z,69.96
2018-05-15T20:14:06.032Z,70.00
2018-05-15T20:16:35.469Z,70.29
2018-05-15T20:19:04.468Z,70.27
2018-05-15T20:21:33.927Z,69.94
2018-05-15T20:24:03.191Z,70.19
2018-05-15T20:26:32.371Z,70.37
2018-05-15T20:29:01.789Z,70.20
2018-05-15T20:31:30.812Z,70.26
2018-05-15T20:34:01.011Z,70.47
2018-05-15T20:36:30.955Z,70.71
2018-05-15T20:38:59.982Z,70.62
2018-05-15T20:41:29.291Z,70.73
2018-05-15T20:44:00.013Z,70.98
2018-05-15T20:46:29.307Z,70.87
2018-05-15T20:48:58.629Z,71.03
2018-05-15T20:51:27.766Z,71.10
2018-05-15T20:53:57.760Z,70.99
2018-05-15T20:56:26.838Z,71.19
2018-05-15T20:58:55.920Z,71.17
2018-05-15T21:01:25.468Z,71.26
2018-05-15T21:03:54.540Z,71.46
2018-05-15T21:06:24.018Z,71.54
2018-05-15T21:08:53.163Z,71.58
2018-05-15T21:11:22.511Z,71.31
2018-05-15T21:13:51.900Z,71.51
2018-05-15T21:16:20.964Z,71.55
2018-05-15T21:18:50.057Z,71.87
2018-05-15T21:21:19.157Z,71.60
2018-05-15T21:23:49.148Z,71.80
2018-05-15T21:26:20.282Z,71.85
2018-05-15T21:28:49.361Z,71.67
2018-05-15T21:31:18.535Z,72.29
2018-05-15T21:33:47.625Z,72.61
2018-05-15T21:36:17.039Z,72.64
2018-05-15T21:38:46.237Z,72.13
2018-05-15T21:41:15.519Z,72.09
2018-05-15T21:43:44.612Z,72.37
2018-05-15T21:46:15.026Z,73.05
2018-05-15T21:48:44.129Z,72.61
2018-05-15T21:51:13.168Z,72.75
2018-05-15T21:53:43.109Z,72.62
2018-05-15T21:56:12.256Z,73.07
2018-05-15T21:58:41.940Z,72.82
2018-05-15T22:01:10.620Z,72.58
2018-05-15T22:03:39.727Z,72.45
2018-05-15T22:06:08.883Z,72.52
2018-05-15T22:08:37.928Z,72.89
2018-05-15T22:11:14.808Z,72.57
2018-05-15T22:13:54.905Z,72.72
2018-05-15T22:16:34.960Z,72.80
2018-05-15T22:19:15.317Z,72.68
2018-05-15T22:21:56.099Z,72.71
2018-05-15T22:24:29.452Z,72.74
2018-05-15T22:26:58.699Z,72.68
2018-05-15T22:29:27.674Z,72.53
2018-05-15T22:31:56.676Z,72.56
2018-05-15T22:34:25.965Z,72.51
2018-05-15T22:36:56.005Z,72.53
2018-05-15T22:39:25.515Z,72.47
2018-05-15T22:41:54.790Z,72.58
2018-05-15T22:44:23.895Z,72.36
2018-05-15T22:46:53.217Z,72.32
2018-05-15T22:49:22.667Z,72.36
2018-05-15T22:51:51.870Z,72.50
2018-05-15T22:54:20.939Z,72.59
2018-05-15T22:56:50.226Z,72.48
2018-05-15T22:59:20.123Z,72.51
2018-05-15T23:01:50.312Z,72.45
2018-05-15T23:04:19.823Z,72.32
2018-05-15T23:06:48.932Z,72.60
2018-05-15T23:09:18.066Z,72.47
2018-05-15T23:11:47.141Z,72.55
2018-05-15T23:14:16.511Z,72.55
2018-05-15T23:16:45.646Z,72.72
2018-05-15T23:19:16.821Z,72.56
2018-05-15T23:21:45.882Z,72.53
2018-05-15T23:24:15.263Z,72.73
2018-05-15T23:26:44.581Z,72.56
2018-05-15T23:29:14.227Z,72.51
2018-05-15T23:31:44.330Z,72.52
2018-05-15T23:34:13.854Z,72.41
2018-05-15T23:36:43.424Z,72.42
2018-05-15T23:39:12.441Z,72.33
2018-05-15T23:41:43.200Z,72.33
2018-05-15T23:44:15.379Z,72.34
2018-05-15T23:46:46.334Z,72.26
2018-05-15T23:49:16.749Z,72.26
2018-05-15T23:51:46.640Z,72.27
2018-05-15T23:54:15.687Z,72.50
2018-05-15T23:56:44.821Z,72.55
2018-05-15T23:59:14.554Z,72.60
